createdAt,value
2023-03-21T00:00:48.245Z,100100.72
2023-03-21T00:03:16.403Z,100100.81
2023-03-21T00:05:51.966Z,100110.09
2023-03-21T00:08:22.549Z,100104.59
2023-03-21T00:10:56.210Z,100102.88
2023-03-21T00:13:22.966Z,100108.75
2023-03-21T00:16:06.928Z,100111.22
2023-03-21T00:18:48.726Z,100096.78
2023-03-21T00:24:06.658Z,100088.94
2023-03-21T00:26:33.594Z,100092.03
2023-03-21T00:29:03.105Z,100089.41
2023-03-21T00:31:30.207Z,100079.09
2023-03-21T00:33:56.887Z,100090.25
2023-03-21T00:36:25.750Z,100087.78
2023-03-21T00:38:53.021Z,100083.75
2023-03-21T00:41:35.219Z,100081.19
2023-03-21T00:44:06.289Z,100080.56
2023-03-21T00:46:42.734Z,100087.63
2023-03-21T00:49:12.029Z,100069.78
2023-03-21T00:51:40.799Z,100073.66
2023-03-21T00:54:07.889Z,100061.69
2023-03-21T00:56:34.457Z,100060.25
2023-03-21T00:59:01.427Z,100052.41
2023-03-21T01:01:32.111Z,100049.13
2023-03-21T01:04:04.868Z,100056.00
2023-03-21T01:06:33.086Z,100049.41
2023-03-21T01:08:59.908Z,100049.13
2023-03-21T01:11:30.551Z,100041.59
2023-03-21T01:14:07.678Z,100036.22
2023-03-21T01:16:38.350Z,100040.16
2023-03-21T01:19:14.787Z,100035.28
2023-03-21T01:21:45.219Z,100039.59
2023-03-21T01:24:12.321Z,100041.13
2023-03-21T01:26:39.309Z,100038.56
2023-03-21T01:29:06.179Z,100040.63
2023-03-21T01:31:33.088Z,100039.13
2023-03-21T01:33:59.782Z,100035.91
2023-03-21T01:36:26.886Z,100034.88
2023-03-21T01:38:59.100Z,100032.19
2023-03-21T01:41:47.575Z,100037.19
2023-03-21T01:44:26.501Z,100041.31
2023-03-21T01:47:09.372Z,100038.22
2023-03-21T01:49:50.169Z,100036.47
2023-03-21T01:52:40.607Z,100021.38
2023-03-21T01:55:13.725Z,100025.03
2023-03-21T01:58:19.015Z,100039.41
2023-03-21T02:01:06.371Z,100038.06
2023-03-21T02:03:50.292Z,100039.16
2023-03-21T02:06:44.487Z,100041.50
2023-03-21T02:09:25.970Z,100036.47
2023-03-21T02:11:54.580Z,100040.22
2023-03-21T02:14:28.971Z,100034.41
2023-03-21T02:17:10.262Z,100032.78
2023-03-21T02:19:54.122Z,100022.63
2023-03-21T02:22:32.519Z,100021.84
2023-03-21T02:25:16.246Z,100026.53
2023-03-21T02:27:52.586Z,100017.25
2023-03-21T02:30:49.123Z,100018.25
2023-03-21T02:33:26.868Z,100015.91
2023-03-21T02:36:14.389Z,100011.72
2023-03-21T02:39:11.553Z,100020.56
2023-03-21T02:42:05.522Z,100010.34
2023-03-21T02:44:56.026Z,100015.53
2023-03-21T02:47:29.319Z,100001.69
2023-03-21T02:50:02.627Z,100002.28
2023-03-21T02:52:39.301Z,100002.19
2023-03-21T02:55:13.840Z,100005.59
2023-03-21T02:57:48.643Z,100008.94
2023-03-21T03:00:20.690Z,100006.97
2023-03-21T03:02:54.647Z,100010.34
2023-03-21T03:05:29.449Z,100012.06
2023-03-21T03:08:04.599Z,100003.47
2023-03-21T03:11:08.121Z,99999.72
2023-03-21T03:13:49.759Z,100008.00
2023-03-21T03:16:30.076Z,100001.53
2023-03-21T03:19:00.774Z,99999.31
2023-03-21T03:21:42.140Z,99991.22
2023-03-21T03:24:16.570Z,99993.81
2023-03-21T03:27:08.276Z,100001.53
2023-03-21T03:29:39.324Z,99997.47
2023-03-21T03:32:12.245Z,99997.78
2023-03-21T03:34:43.380Z,99997.88
2023-03-21T03:37:14.486Z,99994.56
2023-03-21T03:39:48.153Z,99999.25
2023-03-21T03:42:28.034Z,99990.66
2023-03-21T03:45:07.664Z,99996.94
2023-03-21T03:47:55.991Z,99997.88
2023-03-21T03:50:34.499Z,99994.31
2023-03-21T03:53:17.631Z,99983.59
2023-03-21T03:55:45.600Z,99988.72
2023-03-21T03:58:23.624Z,99986.66
2023-03-21T04:00:54.194Z,99985.31
2023-03-21T04:03:21.895Z,99979.06
2023-03-21T04:05:49.059Z,99988.34
2023-03-21T04:08:16.291Z,99990.63
2023-03-21T04:10:47.314Z,99981.63
2023-03-21T04:13:15.327Z,99976.00
2023-03-21T04:15:47.621Z,99973.84
2023-03-21T04:18:16.118Z,99968.13
2023-03-21T04:20:44.992Z,99978.31
2023-03-21T04:23:12.704Z,99961.47
2023-03-21T04:25:55.857Z,99962.41
2023-03-21T04:28:25.859Z,99965.03
2023-03-21T04:31:06.906Z,99967.63
2023-03-21T04:33:44.749Z,99966.75
2023-03-21T04:36:24.649Z,99970.50
2023-03-21T04:38:53.097Z,99964.66
2023-03-21T04:41:20.286Z,99970.03
2023-03-21T04:43:48.449Z,99973.84
2023-03-21T04:46:15.409Z,99972.53
2023-03-21T04:48:42.298Z,99971.16
2023-03-21T04:51:08.728Z,99968.63
2023-03-21T04:53:35.472Z,99969.66
2023-03-21T04:56:02.009Z,99972.63
2023-03-21T04:58:28.530Z,99973.75
2023-03-21T05:00:55.090Z,99978.25
2023-03-21T05:03:21.872Z,99973.75
2023-03-21T05:05:48.738Z,99966.59
2023-03-21T05:08:15.813Z,99974.03
2023-03-21T05:10:43.230Z,99968.78
2023-03-21T05:13:10.363Z,99972.34
2023-03-21T05:15:37.091Z,99974.00
2023-03-21T05:18:11.361Z,99969.47
2023-03-21T05:20:53.486Z,99967.25
2023-03-21T05:23:21.314Z,99965.94
2023-03-21T05:25:47.964Z,99959.72
2023-03-21T05:28:20.390Z,99946.44
2023-03-21T05:30:48.544Z,99942.06
2023-03-21T05:33:15.996Z,99950.78
2023-03-21T05:35:43.340Z,99952.00
2023-03-21T05:38:11.795Z,99957.94
2023-03-21T05:40:49.095Z,99956.50
2023-03-21T05:43:16.402Z,99945.63
2023-03-21T05:45:43.328Z,99949.72
2023-03-21T05:48:10.390Z,99937.94
2023-03-21T05:50:53.742Z,99951.94
2023-03-21T05:53:23.220Z,99938.47
2023-03-21T05:55:50.043Z,99954.00
2023-03-21T05:58:34.748Z,99944.56
2023-03-21T06:01:01.282Z,99948.03
2023-03-21T06:03:32.269Z,99956.81
2023-03-21T06:06:04.642Z,99955.00
2023-03-21T06:08:38.846Z,99963.69
2023-03-21T06:11:06.373Z,99958.16
2023-03-21T06:13:34.812Z,99956.13
2023-03-21T06:16:01.567Z,99947.34
2023-03-21T06:18:28.723Z,99949.88
2023-03-21T06:21:02.973Z,99965.63
2023-03-21T06:23:30.039Z,99964.63
2023-03-21T06:25:57.751Z,99959.97
2023-03-21T06:28:25.942Z,99966.50
2023-03-21T06:30:52.724Z,99961.66
2023-03-21T06:33:23.175Z,99965.63
2023-03-21T06:35:53.906Z,99960.84
2023-03-21T06:38:22.241Z,99959.28
2023-03-21T06:40:49.645Z,99962.16
2023-03-21T06:43:16.765Z,99963.09
2023-03-21T06:45:44.664Z,99965.56
2023-03-21T06:48:11.825Z,99963.56
2023-03-21T06:50:49.376Z,99973.94
2023-03-21T06:53:17.779Z,99975.50
2023-03-21T06:56:04.359Z,99972.75
2023-03-21T06:58:32.453Z,99964.97
2023-03-21T07:01:00.114Z,99968.41
2023-03-21T07:03:26.757Z,99965.28
2023-03-21T07:05:53.654Z,99967.41
2023-03-21T07:08:21.401Z,99966.06
2023-03-21T07:10:47.977Z,99965.56
2023-03-21T07:13:16.152Z,99973.09
2023-03-21T07:15:54.102Z,99969.38
2023-03-21T07:18:20.526Z,99957.53
2023-03-21T07:20:50.936Z,99966.56
2023-03-21T07:23:22.808Z,99966.81
2023-03-21T07:25:50.314Z,99962.47
2023-03-21T07:28:17.436Z,99960.47
2023-03-21T07:30:44.531Z,99961.22
2023-03-21T07:33:11.491Z,99972.22
2023-03-21T07:35:38.406Z,99968.41
2023-03-21T07:38:06.320Z,99970.50
2023-03-21T07:40:32.818Z,99970.31
2023-03-21T07:42:59.367Z,99969.66
2023-03-21T07:45:30.259Z,99965.50
2023-03-21T07:47:56.944Z,99969.31
2023-03-21T07:50:23.659Z,99965.91
2023-03-21T07:52:50.239Z,99960.94
2023-03-21T07:55:17.288Z,99966.66
2023-03-21T07:57:43.962Z,99963.75
2023-03-21T08:00:10.977Z,99972.66
2023-03-21T08:02:41.750Z,99969.69
2023-03-21T08:05:11.477Z,99961.00
2023-03-21T08:07:38.124Z,99966.84
2023-03-21T08:10:04.826Z,99971.88
2023-03-21T08:12:31.243Z,99974.00
2023-03-21T08:15:00.595Z,99972.53
2023-03-21T08:17:27.549Z,99978.44
2023-03-21T08:19:53.998Z,99962.00
2023-03-21T08:22:20.701Z,99968.28
2023-03-21T08:24:47.094Z,99964.88
2023-03-21T08:27:13.903Z,99967.38
2023-03-21T08:29:42.292Z,99974.75
2023-03-21T08:32:09.050Z,99968.38
2023-03-21T08:34:35.571Z,99974.13
2023-03-21T08:37:02.508Z,99965.22
2023-03-21T08:39:28.953Z,99971.88
2023-03-21T08:41:55.617Z,99958.50
2023-03-21T08:44:22.059Z,99974.78
2023-03-21T08:46:48.449Z,99970.50
2023-03-21T08:49:14.877Z,99972.75
2023-03-21T08:51:41.332Z,99972.84
2023-03-21T08:54:07.954Z,99971.31
2023-03-21T08:56:36.299Z,99979.91
2023-03-21T08:59:04.368Z,99968.47
2023-03-21T09:01:32.482Z,99973.06
2023-03-21T09:03:58.925Z,99967.66
2023-03-21T09:06:26.877Z,99967.19
2023-03-21T09:08:53.330Z,99968.97
2023-03-21T09:11:19.794Z,99961.75
2023-03-21T09:13:46.217Z,99966.31
2023-03-21T09:16:12.687Z,99963.47
2023-03-21T09:18:47.187Z,99966.09
2023-03-21T09:21:16.066Z,99962.25
2023-03-21T09:23:42.654Z,99962.13
2023-03-21T09:26:09.627Z,99958.16
2023-03-21T09:28:38.975Z,99968.16
2023-03-21T09:31:06.379Z,99966.19
2023-03-21T09:33:35.170Z,99958.72
2023-03-21T09:36:01.718Z,99967.94
2023-03-21T09:38:30.253Z,99962.16
2023-03-21T09:41:17.136Z,99967.56
2023-03-21T09:44:16.163Z,99965.31
2023-03-21T09:47:10.794Z,99962.88
2023-03-21T09:49:43.457Z,99968.44
2023-03-21T09:52:16.102Z,99962.28
2023-03-21T09:54:45.682Z,99958.78
2023-03-21T09:57:20.645Z,99955.66
2023-03-21T09:59:48.306Z,99963.22
2023-03-21T10:02:47.005Z,99966.75
2023-03-21T10:05:24.234Z,99961.06
2023-03-21T10:07:59.119Z,99960.09
2023-03-21T10:10:29.191Z,99961.66
2023-03-21T10:12:56.566Z,99955.03
2023-03-21T10:15:25.785Z,99961.78
2023-03-21T10:17:57.237Z,99965.75
2023-03-21T10:20:27.198Z,99970.09
2023-03-21T10:22:55.047Z,99953.34
2023-03-21T10:25:33.874Z,99955.38
2023-03-21T10:28:01.898Z,99955.88
2023-03-21T10:30:36.165Z,99954.44
2023-03-21T10:33:05.562Z,99943.41
2023-03-21T10:35:34.044Z,99945.84
2023-03-21T10:38:01.564Z,99943.25
2023-03-21T10:40:28.016Z,99951.03
2023-03-21T10:43:35.619Z,99950.91
2023-03-21T10:46:12.981Z,99949.94
2023-03-21T10:48:41.872Z,99944.38
2023-03-21T10:51:09.167Z,99944.13
2023-03-21T10:53:39.786Z,99943.28
2023-03-21T10:56:09.223Z,99936.97
2023-03-21T10:58:39.788Z,99940.41
2023-03-21T11:01:10.452Z,99934.81
2023-03-21T11:03:39.106Z,99938.22
2023-03-21T11:06:09.574Z,99939.53
2023-03-21T11:08:41.487Z,99943.66
2023-03-21T11:11:09.830Z,99939.28
2023-03-21T11:13:44.014Z,99938.47
2023-03-21T11:16:18.367Z,99945.22
2023-03-21T11:18:50.195Z,99943.81
2023-03-21T11:21:17.643Z,99933.53
2023-03-21T11:23:47.771Z,99941.50
2023-03-21T11:26:24.032Z,99943.81
2023-03-21T11:28:51.798Z,99941.50
2023-03-21T11:31:18.710Z,99941.41
2023-03-21T11:33:54.125Z,99936.91
2023-03-21T11:36:20.730Z,99942.09
2023-03-21T11:38:57.426Z,99935.22
2023-03-21T11:41:32.038Z,99939.31
2023-03-21T11:43:59.215Z,99935.31
2023-03-21T11:46:27.548Z,99932.31
2023-03-21T11:48:55.634Z,99929.53
2023-03-21T11:51:37.127Z,99930.50
2023-03-21T11:54:19.430Z,99924.84
2023-03-21T11:56:49.346Z,99931.72
2023-03-21T11:59:36.630Z,99922.31
2023-03-21T12:02:37.268Z,99913.97
2023-03-21T12:05:22.304Z,99912.78
2023-03-21T12:08:07.414Z,99906.97
2023-03-21T12:10:44.201Z,99907.34
2023-03-21T12:13:36.804Z,99896.22
2023-03-21T12:16:15.907Z,99890.66
2023-03-21T12:19:13.121Z,99888.13
2023-03-21T12:21:55.055Z,99877.84
2023-03-21T12:24:43.716Z,99870.97
2023-03-21T12:27:30.680Z,99874.13
2023-03-21T12:30:19.859Z,99866.28
2023-03-21T12:33:05.145Z,99870.63
2023-03-21T12:36:04.366Z,99870.97
2023-03-21T12:38:49.487Z,99859.88
2023-03-21T12:41:23.461Z,99865.38
2023-03-21T12:43:59.118Z,99854.88
2023-03-21T12:46:33.816Z,99845.31
2023-03-21T12:49:02.592Z,99851.34
2023-03-21T12:51:32.744Z,99842.38
2023-03-21T12:54:07.674Z,99833.22
2023-03-21T12:56:45.791Z,99834.50
2023-03-21T12:59:33.351Z,99836.56
2023-03-21T13:02:23.654Z,99826.19
2023-03-21T13:05:28.214Z,99830.09
2023-03-21T13:07:58.867Z,99818.47
2023-03-21T13:10:25.724Z,99822.81
2023-03-21T13:13:07.426Z,99828.00
2023-03-21T13:15:56.188Z,99818.34
2023-03-21T13:18:40.902Z,99816.91
2023-03-21T13:21:38.393Z,99812.69
2023-03-21T13:24:25.297Z,99814.78
2023-03-21T13:27:07.002Z,99808.75
2023-03-21T13:29:45.597Z,99805.72
2023-03-21T13:32:38.789Z,99807.28
2023-03-21T13:35:27.418Z,99802.34
2023-03-21T13:37:58.750Z,99805.00
2023-03-21T13:40:45.892Z,99802.22
2023-03-21T13:43:35.765Z,99803.06
2023-03-21T13:46:13.664Z,99808.50
2023-03-21T13:48:57.739Z,99805.50
2023-03-21T13:51:27.758Z,99806.50
2023-03-21T13:54:07.455Z,99795.16
2023-03-21T13:56:50.060Z,99802.91
2023-03-21T13:59:38.485Z,99796.41
2023-03-21T14:02:28.982Z,99794.47
2023-03-21T14:05:05.457Z,99788.09
2023-03-21T14:07:40.906Z,99786.03
2023-03-21T14:10:22.626Z,99782.44
2023-03-21T14:12:49.182Z,99781.22
2023-03-21T14:15:27.669Z,99774.94
2023-03-21T14:18:00.245Z,99776.59
2023-03-21T14:20:38.333Z,99776.59
2023-03-21T14:23:06.593Z,99782.03
2023-03-21T14:25:40.946Z,99780.47
2023-03-21T14:28:17.647Z,99780.00
2023-03-21T14:30:44.598Z,99781.47
2023-03-21T14:33:22.588Z,99780.97
2023-03-21T14:35:49.273Z,99769.97
2023-03-21T14:38:36.654Z,99767.09
2023-03-21T14:41:04.413Z,99762.56
2023-03-21T14:43:33.943Z,99751.84
2023-03-21T14:46:01.119Z,99746.75
2023-03-21T14:48:35.115Z,99751.69
2023-03-21T14:51:03.972Z,99737.94
2023-03-21T14:53:32.856Z,99729.88
2023-03-21T14:56:07.997Z,99721.91
2023-03-21T14:58:38.466Z,99718.56
2023-03-21T15:01:07.486Z,99707.56
2023-03-21T15:03:34.576Z,99683.72
2023-03-21T15:06:01.561Z,99686.16
2023-03-21T15:08:29.319Z,99679.50
2023-03-21T15:11:07.993Z,99694.44
2023-03-21T15:13:37.831Z,99698.53
2023-03-21T15:16:04.611Z,99708.31
2023-03-21T15:18:33.553Z,99726.00
2023-03-21T15:21:03.927Z,99732.66
2023-03-21T15:23:37.369Z,99720.84
2023-03-21T15:26:04.330Z,99719.41
2023-03-21T15:28:31.634Z,99714.94
2023-03-21T15:30:58.212Z,99716.63
2023-03-21T15:33:25.459Z,99707.13
2023-03-21T15:35:55.488Z,99715.19
2023-03-21T15:38:39.970Z,99710.03
2023-03-21T15:41:16.205Z,99692.28
2023-03-21T15:43:43.361Z,99686.38
2023-03-21T15:46:14.885Z,99704.78
2023-03-21T15:48:41.376Z,99697.84
2023-03-21T15:51:14.617Z,99692.13
2023-03-21T15:53:42.755Z,99700.22
2023-03-21T15:56:16.354Z,99683.59
2023-03-21T15:58:44.626Z,99686.34
2023-03-21T16:01:34.848Z,99668.88
2023-03-21T16:04:06.916Z,99656.69
2023-03-21T16:06:36.605Z,99640.09
2023-03-21T16:09:22.002Z,99641.25
2023-03-21T16:11:53.225Z,99652.84
2023-03-21T16:14:20.593Z,99664.41
2023-03-21T16:16:47.222Z,99688.47
2023-03-21T16:19:14.251Z,99697.63
2023-03-21T16:21:41.716Z,99695.13
2023-03-21T16:24:11.455Z,99702.81
2023-03-21T16:26:42.632Z,99695.59
2023-03-21T16:29:11.991Z,99706.34
2023-03-21T16:31:38.474Z,99693.19
2023-03-21T16:34:05.110Z,99684.25
2023-03-21T16:36:33.780Z,99692.13
2023-03-21T16:39:00.621Z,99691.13
2023-03-21T16:41:27.564Z,99694.53
2023-03-21T16:43:54.081Z,99686.81
2023-03-21T16:46:25.730Z,99696.81
2023-03-21T16:48:56.766Z,99689.94
2023-03-21T16:51:32.155Z,99674.38
2023-03-21T16:53:58.632Z,99671.00
2023-03-21T16:56:27.261Z,99680.88
2023-03-21T16:58:54.603Z,99682.06
2023-03-21T17:01:25.897Z,99678.81
2023-03-21T17:03:53.067Z,99692.06
2023-03-21T17:06:22.250Z,99695.91
2023-03-21T17:08:48.698Z,99695.28
2023-03-21T17:11:17.720Z,99690.19
2023-03-21T17:13:44.329Z,99686.22
2023-03-21T17:16:12.888Z,99676.19
2023-03-21T17:18:39.538Z,99674.63
2023-03-21T17:21:14.447Z,99675.69
2023-03-21T17:23:41.049Z,99685.56
2023-03-21T17:26:10.564Z,99690.97
2023-03-21T17:28:37.778Z,99692.03
2023-03-21T17:31:06.255Z,99682.66
2023-03-21T17:33:33.263Z,99684.66
2023-03-21T17:35:59.680Z,99691.78
2023-03-21T17:38:26.169Z,99681.53
2023-03-21T17:40:52.590Z,99685.22
2023-03-21T17:43:20.896Z,99683.66
2023-03-21T17:45:47.351Z,99668.84
2023-03-21T17:48:13.859Z,99661.97
2023-03-21T17:50:40.895Z,99662.41
2023-03-21T17:53:07.673Z,99667.84
2023-03-21T17:55:34.864Z,99662.88
2023-03-21T17:58:01.534Z,99668.72
2023-03-21T18:00:31.335Z,99668.19
2023-03-21T18:02:58.177Z,99661.09
2023-03-21T18:05:25.318Z,99668.41
2023-03-21T18:10:40.604Z,99656.06
2023-03-21T18:13:08.524Z,99654.09
2023-03-21T18:15:37.955Z,99655.81
2023-03-21T18:18:05.422Z,99663.19
2023-03-21T18:23:19.265Z,99669.69
2023-03-21T18:25:45.957Z,99671.28
2023-03-21T18:28:13.162Z,99679.09
2023-03-21T18:31:05.245Z,99673.41
2023-03-21T18:33:27.561Z,99666.75
2023-03-21T18:35:59.185Z,99672.13
2023-03-21T18:38:27.441Z,99671.59
2023-03-21T18:40:54.144Z,99669.28
2023-03-21T18:44:01.365Z,99677.75
2023-03-21T18:46:07.646Z,99674.34
2023-03-21T18:48:35.682Z,99673.50
2023-03-21T18:51:03.644Z,99678.44
2023-03-21T18:53:30.898Z,99671.28
2023-03-21T18:55:57.975Z,99669.78
2023-03-21T19:01:04.386Z,99663.63
2023-03-21T19:03:36.572Z,99661.22
2023-03-21T19:06:06.484Z,99654.53
2023-03-21T19:08:44.345Z,99684.34
2023-03-21T19:11:11.720Z,99680.03
2023-03-21T19:13:38.776Z,99674.97
2023-03-21T19:16:10.938Z,99661.22
2023-03-21T19:18:54.052Z,99667.97
2023-03-21T19:21:22.204Z,99676.97
2023-03-21T19:24:22.767Z,99670.75
2023-03-21T19:26:39.830Z,99693.34
2023-03-21T19:29:07.554Z,99687.53
2023-03-21T19:31:34.946Z,99691.25
2023-03-21T19:34:02.034Z,99678.91
2023-03-21T19:36:34.550Z,99678.69
2023-03-21T19:42:16.811Z,99696.97
2023-03-21T19:44:44.805Z,99684.28
2023-03-21T19:53:30.935Z,99691.06
2023-03-21T19:56:03.521Z,99668.63
2023-03-21T19:58:31.387Z,99661.22
2023-03-21T20:00:59.193Z,99670.31
2023-03-21T20:03:26.336Z,99680.03
2023-03-21T20:06:02.473Z,99666.81
2023-03-21T20:08:42.848Z,99660.13
2023-03-21T20:11:17.965Z,99670.59
2023-03-21T20:13:46.295Z,99665.88
2023-03-21T20:16:13.673Z,99670.47
2023-03-21T20:18:41.808Z,99682.94
2023-03-21T20:21:17.525Z,99675.13
2023-03-21T20:23:49.218Z,99675.13
2023-03-21T20:26:16.891Z,99679.03
2023-03-21T20:28:56.540Z,99691.28
2023-03-21T20:31:32.996Z,99671.84
2023-03-21T20:34:00.051Z,99671.34
2023-03-21T20:36:43.763Z,99691.22
2023-03-21T20:39:11.091Z,99681.38
2023-03-21T20:41:38.290Z,99697.09
2023-03-21T20:46:52.522Z,99694.50
2023-03-21T20:49:23.172Z,99686.13
2023-03-21T20:52:46.217Z,99673.41
2023-03-21T20:54:37.855Z,99678.88
2023-03-21T20:57:05.187Z,99674.19
2023-03-21T20:59:32.102Z,99657.94
2023-03-21T21:01:59.066Z,99665.44
2023-03-21T21:04:46.730Z,99673.06
2023-03-21T21:17:15.493Z,99673.91
2023-03-21T21:19:53.141Z,99677.91
2023-03-21T21:22:20.828Z,99655.16
2023-03-21T21:25:18.126Z,99678.81
2023-03-21T21:27:53.938Z,99669.16
2023-03-21T21:30:20.914Z,99657.13
2023-03-21T21:32:49.282Z,99671.69
2023-03-21T21:35:17.937Z,99668.59
2023-03-21T21:37:44.964Z,99665.50
2023-03-21T21:40:20.245Z,99665.03
2023-03-21T21:42:46.919Z,99663.63
2023-03-21T21:45:14.251Z,99658.69
2023-03-21T21:47:41.068Z,99661.72
2023-03-21T21:50:08.302Z,99663.78
2023-03-21T21:52:35.560Z,99677.31
2023-03-21T21:55:04.094Z,99661.41
2023-03-21T21:57:34.085Z,99660.31
2023-03-21T22:00:06.854Z,99662.72
2023-03-21T22:02:39.025Z,99660.91
2023-03-21T22:05:06.965Z,99661.75
2023-03-21T22:19:58.939Z,99669.09
2023-03-21T22:22:31.304Z,99669.09
2023-03-21T22:24:57.848Z,99670.19
2023-03-21T22:36:11.117Z,99666.56
2023-03-21T22:38:38.341Z,99654.63
2023-03-21T22:41:06.440Z,99657.84
2023-03-21T22:43:40.721Z,99661.50
2023-03-21T22:46:07.734Z,99652.19
2023-03-21T22:48:34.805Z,99662.91
2023-03-21T22:51:05.622Z,99671.34
2023-03-21T22:53:32.138Z,99669.53
2023-03-21T22:55:58.764Z,99651.69
2023-03-21T23:04:04.619Z,99663.50
2023-03-21T23:06:31.684Z,99666.47
2023-03-21T23:15:13.058Z,99657.63
2023-03-21T23:17:39.839Z,99655.16
2023-03-21T23:20:11.018Z,99650.97
2023-03-21T23:22:37.852Z,99646.09
2023-03-21T23:25:08.376Z,99644.72
2023-03-21T23:27:35.830Z,99649.41
2023-03-21T23:30:04.970Z,99652.06
2023-03-21T23:32:32.166Z,99648.91
2023-03-21T23:34:59.784Z,99654.59
2023-03-21T23:37:26.551Z,99638.22
2023-03-21T23:39:55.253Z,99656.44
2023-03-21T23:42:25.434Z,99644.28
2023-03-21T23:44:52.305Z,99639.50
2023-03-21T23:47:19.323Z,99638.25
2023-03-21T23:49:49.149Z,99627.34
2023-03-21T23:52:16.349Z,99624.13
2023-03-21T23:54:43.400Z,99629.09
2023-03-21T23:57:10.348Z,99634.13
2023-03-21T23:59:36.919Z,99632.22
